Time;durP1;ratioP1;P1;durP2;ratioP2;P2;SDS_P1;SDS_P2;PMS_P1;PMS_P2;Temp;Humidity;BMP_temperature;BMP_pressure;BME280_temperature;BME280_humidity;BME280_pressure;Samples;Min_cycle;Max_cycle;Signal;HPM_P1;HPM_P2
2023/12/22 00:00:35;;;;;;;;;;;;;;;5.73;100.00;100278.16;5018863;28;19994;-67
2023/12/22 00:03:01;;;;;;;;;;;;;;;5.72;100.00;100276.50;5017518;28;19983;-67
2023/12/22 00:05:26;;;;;;;;;;;;;;;5.74;100.00;100271.91;5017530;28;19928;-68
2023/12/22 00:07:51;;;;;;;;;;;;;;;5.71;100.00;100255.56;5018526;28;19925;-68
2023/12/22 00:10:16;;;;;;;;;;;;;;;5.68;100.00;100263.78;5019568;28;20073;-68
2023/12/22 00:12:41;;;;;;;;;;;;;;;5.66;100.00;100274.47;5017113;28;20406;-68
2023/12/22 00:15:07;;;;;;;;;;;;;;;5.64;100.00;100276.44;5020460;28;19975;-68
2023/12/22 00:17:32;;;;;;;;;;;;;;;5.64;100.00;100280.88;5019735;28;20329;-68
2023/12/22 00:19:59;;;;;;;;;;;;;;;5.66;100.00;100282.38;5012987;28;19932;-67
2023/12/22 00:22:27;;;;;;;;;;;;;;;5.65;100.00;100290.44;5013979;28;20015;-68
2023/12/22 00:24:52;;;;;;;;;;;;;;;5.67;100.00;100315.66;5017707;28;20541;-67
2023/12/22 00:27:18;;;;;;;;;;;;;;;5.70;100.00;100311.88;5010256;28;19918;-67
2023/12/22 00:29:43;;;;;;;;;;;;;;;5.72;100.00;100333.63;5013916;28;20465;-68
2023/12/22 00:32:09;;;;;;;;;;;;;;;5.67;100.00;100307.75;5016723;28;19921;-67
2023/12/22 00:34:34;;;;;;;;;;;;;;;5.63;100.00;100303.78;5014285;28;19927;-68
2023/12/22 00:37:00;;;;;;;;;;;;;;;5.65;100.00;100306.25;5018861;28;19916;-67
2023/12/22 00:39:25;;;;;;;;;;;;;;;5.64;100.00;100297.53;5019335;28;19921;-67
2023/12/22 00:41:50;;;;;;;;;;;;;;;5.67;100.00;100301.66;5018246;28;19917;-67
2023/12/22 00:44:15;;;;;;;;;;;;;;;5.69;100.00;100299.69;5017018;28;20003;-68
2023/12/22 00:46:41;;;;;;;;;;;;;;;5.67;100.00;100304.28;5013642;28;19931;-67
2023/12/22 00:49:06;;;;;;;;;;;;;;;5.67;100.00;100312.19;5013226;28;19917;-67
2023/12/22 00:51:31;;;;;;;;;;;;;;;5.69;100.00;100312.88;5012859;28;19925;-68
2023/12/22 00:53:56;;;;;;;;;;;;;;;5.68;100.00;100298.88;5015283;28;19927;-67
2023/12/22 00:56:21;;;;;;;;;;;;;;;5.64;100.00;100296.69;5017665;28;19960;-67
2023/12/22 00:58:47;;;;;;;;;;;;;;;5.62;100.00;100293.38;5016648;28;20040;-67
2023/12/22 01:01:12;;;;;;;;;;;;;;;5.59;100.00;100289.25;5015985;28;19921;-67
2023/12/22 01:03:37;;;;;;;;;;;;;;;5.55;100.00;100294.00;5011851;28;19922;-67
2023/12/22 01:06:02;;;;;;;;;;;;;;;5.51;100.00;100291.81;5018415;28;19927;-67
2023/12/22 01:08:28;;;;;;;;;;;;;;;5.47;100.00;100285.19;5011940;28;19932;-67
2023/12/22 01:10:53;;;;;;;;;;;;;;;5.44;100.00;100283.69;5016796;28;19967;-67
2023/12/22 01:13:18;;;;;;;;;;;;;;;5.41;100.00;100306.84;5014344;28;20033;-68
2023/12/22 01:15:43;;;;;;;;;;;;;;;5.49;100.00;100314.81;5021410;28;19925;-67
2023/12/22 01:18:09;;;;;;;;;;;;;;;5.56;100.00;100310.63;5018390;28;19967;-67
2023/12/22 01:20:34;;;;;;;;;;;;;;;5.55;100.00;100304.53;5024960;28;20371;-67
2023/12/22 01:22:59;;;;;;;;;;;;;;;5.56;100.00;100300.91;5020896;28;20000;-67
2023/12/22 01:25:24;;;;;;;;;;;;;;;5.62;100.00;100310.00;5021990;28;19932;-67
2023/12/22 01:27:52;;;;;;;;;;;;;;;5.73;100.00;100325.56;5009227;28;19917;-67
2023/12/22 01:30:17;;;;;;;;;;;;;;;5.83;100.00;100323.69;5028016;28;19917;-67
2023/12/22 01:32:42;;;;;;;;;;;;;;;5.91;100.00;100328.22;5017463;28;20034;-67
2023/12/22 01:35:09;;;;;;;;;;;;;;;5.94;100.00;100325.28;5025102;28;19928;-67
2023/12/22 01:37:38;;;;;;;;;;;;;;;6.06;100.00;100339.03;5016763;28;20354;-67
2023/12/22 01:40:03;;;;;;;;;;;;;;;6.13;100.00;100329.56;5019546;28;19929;-67
2023/12/22 01:42:29;;;;;;;;;;;;;;;6.14;100.00;100321.50;5020048;28;19921;-67
2023/12/22 01:44:54;;;;;;;;;;;;;;;6.19;100.00;100328.94;5012881;28;19968;-67
2023/12/22 01:47:20;;;;;;;;;;;;;;;6.21;100.00;100332.22;5019723;28;19917;-67
2023/12/22 01:49:45;;;;;;;;;;;;;;;6.24;100.00;100321.38;5018525;28;19944;-67
2023/12/22 01:52:11;;;;;;;;;;;;;;;6.30;100.00;100325.19;5018151;28;20473;-67
2023/12/22 01:54:36;;;;;;;;;;;;;;;6.32;100.00;100331.97;5018786;28;19932;-67
2023/12/22 01:57:02;;;;;;;;;;;;;;;6.33;100.00;100349.44;5020251;28;19917;-67
2023/12/22 01:59:30;;;;;;;;;;;;;;;6.36;100.00;100353.56;5018608;28;19933;-67
2023/12/22 02:01:55;;;;;;;;;;;;;;;6.35;100.00;100358.03;5012997;28;20374;-67
2023/12/22 02:04:21;;;;;;;;;;;;;;;6.50;100.00;100335.38;5016379;28;19921;-67
2023/12/22 02:06:47;;;;;;;;;;;;;;;6.55;98.75;100327.00;5023951;28;19917;-66
2023/12/22 02:09:12;;;;;;;;;;;;;;;6.58;98.11;100312.66;5019811;28;19932;-66
2023/12/22 02:11:38;;;;;;;;;;;;;;;6.67;97.14;100327.56;5018538;28;19921;-67
2023/12/22 02:14:03;;;;;;;;;;;;;;;6.67;95.17;100327.56;5021399;28;19922;-66
2023/12/22 02:16:42;;;;;;;;;;;;;;;6.69;95.14;100331.69;5020448;28;19929;-66
2023/12/22 02:19:21;;;;;;;;;;;;;;;6.69;94.75;100341.41;5014618;28;19921;-67
2023/12/22 02:22:18;;;;;;;;;;;;;;;6.73;94.70;100340.94;5018388;28;19918;-67
2023/12/22 02:24:44;;;;;;;;;;;;;;;6.68;94.42;100331.84;5021014;28;20461;-66
2023/12/22 02:27:13;;;;;;;;;;;;;;;6.66;94.56;100328.56;5021152;28;19921;-67
2023/12/22 02:29:42;;;;;;;;;;;;;;;6.69;93.89;100329.06;5018496;28;19922;-66
2023/12/22 02:32:10;;;;;;;;;;;;;;;6.70;93.73;100329.88;5019883;28;20464;-67
2023/12/22 02:34:37;;;;;;;;;;;;;;;6.77;93.38;100329.09;5015353;28;19927;-66
2023/12/22 02:37:05;;;;;;;;;;;;;;;6.74;92.40;100336.50;5017459;28;19918;-67
2023/12/22 02:39:30;;;;;;;;;;;;;;;6.75;92.01;100335.50;5014063;28;19932;-67
2023/12/22 02:41:56;;;;;;;;;;;;;;;6.74;91.26;100331.22;5019961;28;19921;-66
2023/12/22 02:44:21;;;;;;;;;;;;;;;6.75;90.72;100324.94;5017051;28;19917;-67
2023/12/22 02:46:47;;;;;;;;;;;;;;;6.77;91.02;100315.06;5015713;28;19927;-66
2023/12/22 02:49:13;;;;;;;;;;;;;;;6.75;90.67;100324.94;5016578;28;20288;-66
2023/12/22 02:51:38;;;;;;;;;;;;;;;6.71;90.07;100335.00;5012507;28;19932;-66
2023/12/22 02:54:03;;;;;;;;;;;;;;;6.71;89.90;100323.63;5014080;28;20416;-66
2023/12/22 02:56:29;;;;;;;;;;;;;;;6.71;90.55;100313.88;5017207;28;19925;-66
2023/12/22 02:58:54;;;;;;;;;;;;;;;6.74;90.02;100299.56;5020631;28;19975;-66
2023/12/22 03:01:19;;;;;;;;;;;;;;;6.84;90.37;100316.06;5018396;28;20290;-66
2023/12/22 03:03:44;;;;;;;;;;;;;;;6.82;90.64;100304.84;5015390;28;20418;-66
2023/12/22 03:06:09;;;;;;;;;;;;;;;6.86;91.01;100292.97;5016659;28;19928;-66
2023/12/22 03:08:34;;;;;;;;;;;;;;;6.87;91.05;100301.72;5009145;28;19918;-66
2023/12/22 03:11:00;;;;;;;;;;;;;;;6.81;91.55;100290.84;5019854;28;19925;-66
2023/12/22 03:13:25;;;;;;;;;;;;;;;6.75;91.94;100280.91;5018957;28;19921;-66
2023/12/22 03:15:50;;;;;;;;;;;;;;;6.80;91.86;100291.81;5025145;28;19981;-67
2023/12/22 03:18:15;;;;;;;;;;;;;;;6.72;92.29;100291.78;5018158;28;20391;-66
2023/12/22 03:20:41;;;;;;;;;;;;;;;6.67;92.05;100288.81;5019080;28;19933;-66
2023/12/22 03:23:06;;;;;;;;;;;;;;;6.71;92.24;100294.59;5018704;28;19928;-66
2023/12/22 03:25:31;;;;;;;;;;;;;;;6.58;92.60;100294.19;5014769;28;20016;-66
2023/12/22 03:27:56;;;;;;;;;;;;;;;6.58;92.86;100307.38;5018408;28;19943;-66
2023/12/22 03:30:21;;;;;;;;;;;;;;;6.59;93.08;100320.41;5021243;28;19924;-66
2023/12/22 03:32:47;;;;;;;;;;;;;;;6.58;93.22;100315.28;5018748;28;20683;-66
2023/12/22 03:35:12;;;;;;;;;;;;;;;6.61;93.42;100322.91;5020401;28;19925;-66
2023/12/22 03:37:37;;;;;;;;;;;;;;;6.67;93.23;100322.28;5016363;28;19929;-66
2023/12/22 03:40:02;;;;;;;;;;;;;;;6.73;93.42;100327.75;5013858;28;19929;-66
2023/12/22 03:42:27;;;;;;;;;;;;;;;6.76;93.13;100318.69;5013772;28;20390;-66
2023/12/22 03:44:53;;;;;;;;;;;;;;;6.82;92.99;100310.13;5011573;28;19929;-66
2023/12/22 03:47:18;;;;;;;;;;;;;;;6.90;92.85;100331.28;5012271;28;19964;-66
2023/12/22 03:49:43;;;;;;;;;;;;;;;7.02;92.46;100319.44;5013172;28;20600;-66
2023/12/22 03:52:08;;;;;;;;;;;;;;;7.00;92.03;100317.97;5016259;28;20759;-66
2023/12/22 03:54:33;;;;;;;;;;;;;;;7.05;92.05;100323.56;5008705;28;21044;-66
2023/12/22 03:56:59;;;;;;;;;;;;;;;7.11;91.16;100326.41;5011907;28;20619;-66
2023/12/22 03:59:24;;;;;;;;;;;;;;;7.18;90.41;100331.03;5013073;28;19932;-66
2023/12/22 04:01:52;;;;;;;;;;;;;;;7.19;89.63;100336.16;5013923;28;19963;-66
2023/12/22 04:04:18;;;;;;;;;;;;;;;7.24;89.58;100333.06;5018217;28;19995;-66
2023/12/22 04:06:43;;;;;;;;;;;;;;;7.25;89.29;100334.69;5011195;28;20513;-66
2023/12/22 04:09:08;;;;;;;;;;;;;;;7.28;88.98;100337.84;5020806;28;19916;-66
2023/12/22 04:11:34;;;;;;;;;;;;;;;7.34;88.69;100354.84;5009979;28;19925;-66
2023/12/22 04:14:00;;;;;;;;;;;;;;;7.36;88.43;100347.59;5017169;28;20819;-66
2023/12/22 04:16:25;;;;;;;;;;;;;;;7.37;88.42;100359.81;5008888;28;20000;-66
2023/12/22 04:18:50;;;;;;;;;;;;;;;7.38;87.51;100346.44;5009806;28;19925;-66
2023/12/22 04:21:16;;;;;;;;;;;;;;;7.40;87.38;100354.19;5015503;28;19921;-66
2023/12/22 04:23:41;;;;;;;;;;;;;;;7.42;87.67;100352.22;5017501;28;19921;-67
2023/12/22 04:26:09;;;;;;;;;;;;;;;7.45;86.98;100357.19;5018189;28;19921;-69
2023/12/22 04:28:34;;;;;;;;;;;;;;;7.41;87.27;100375.16;5016701;28;20402;-65
2023/12/22 04:31:00;;;;;;;;;;;;;;;7.38;86.32;100372.84;5012849;28;19928;-66
2023/12/22 04:33:25;;;;;;;;;;;;;;;7.40;86.46;100375.34;5017518;28;19921;-66
2023/12/22 04:35:50;;;;;;;;;;;;;;;7.50;86.03;100373.38;5009020;28;19980;-66
2023/12/22 04:38:15;;;;;;;;;;;;;;;7.45;85.68;100373.84;5013521;28;19965;-66
2023/12/22 04:40:40;;;;;;;;;;;;;;;7.48;85.54;100372.69;5008856;28;19926;-65
2023/12/22 04:43:06;;;;;;;;;;;;;;;7.51;85.26;100366.25;5015420;28;19961;-66
2023/12/22 04:45:31;;;;;;;;;;;;;;;7.53;84.04;100369.59;5019627;28;19917;-66
2023/12/22 04:47:57;;;;;;;;;;;;;;;7.54;84.17;100352.75;5012937;28;20016;-67
2023/12/22 04:50:22;;;;;;;;;;;;;;;7.48;83.96;100367.41;5024416;28;19925;-67
2023/12/22 04:52:48;;;;;;;;;;;;;;;7.49;83.64;100370.88;5012861;28;19931;-66
2023/12/22 04:55:13;;;;;;;;;;;;;;;7.53;83.87;100377.53;5011057;28;19921;-66
2023/12/22 04:57:38;;;;;;;;;;;;;;;7.53;84.64;100367.78;5023258;28;19974;-66
2023/12/22 05:00:03;;;;;;;;;;;;;;;7.50;84.49;100373.38;5023057;28;19926;-66
2023/12/22 05:02:30;;;;;;;;;;;;;;;7.51;84.44;100377.66;5026795;28;19925;-66
2023/12/22 05:04:55;;;;;;;;;;;;;;;7.51;84.86;100382.94;5016976;28;19924;-66
2023/12/22 05:07:20;;;;;;;;;;;;;;;7.51;85.43;100385.59;5020729;28;19924;-66
2023/12/22 05:09:45;;;;;;;;;;;;;;;7.50;85.41;100385.75;5020318;28;19921;-66
2023/12/22 05:12:10;;;;;;;;;;;;;;;7.50;86.01;100383.94;5025733;28;19917;-66
2023/12/22 05:14:36;;;;;;;;;;;;;;;7.52;86.45;100379.34;5014403;28;19917;-66
2023/12/22 05:17:01;;;;;;;;;;;;;;;7.53;86.60;100375.72;5014877;28;20500;-66
2023/12/22 05:19:26;;;;;;;;;;;;;;;7.57;86.49;100377.03;5021623;28;19925;-66
2023/12/22 05:21:55;;;;;;;;;;;;;;;7.65;86.45;100386.78;5026404;28;20414;-66
2023/12/22 05:24:20;;;;;;;;;;;;;;;7.64;87.10;100385.97;5023622;28;20505;-66
2023/12/22 05:26:46;;;;;;;;;;;;;;;7.59;87.27;100375.06;5018868;28;19917;-66
2023/12/22 05:29:12;;;;;;;;;;;;;;;7.56;88.08;100374.56;5023721;28;19957;-66
2023/12/22 05:31:38;;;;;;;;;;;;;;;7.50;88.98;100389.22;5020537;28;19917;-66
2023/12/22 05:34:03;;;;;;;;;;;;;;;7.49;89.59;100389.38;5024928;28;19933;-66
2023/12/22 05:36:29;;;;;;;;;;;;;;;7.47;90.21;100384.25;5017139;28;20000;-66
2023/12/22 05:38:54;;;;;;;;;;;;;;;7.43;90.72;100375.00;5021986;28;19932;-66
2023/12/22 05:41:19;;;;;;;;;;;;;;;7.44;91.04;100350.25;5023416;28;19921;-66
2023/12/22 05:43:45;;;;;;;;;;;;;;;7.46;91.39;100359.66;5015952;28;19921;-66
2023/12/22 05:46:10;;;;;;;;;;;;;;;7.50;91.76;100360.16;5023956;28;19917;-66
2023/12/22 05:48:35;;;;;;;;;;;;;;;7.47;91.77;100373.69;5019724;28;19920;-66
2023/12/22 05:51:03;;;;;;;;;;;;;;;7.43;92.39;100377.66;5017605;28;19980;-66
2023/12/22 05:53:28;;;;;;;;;;;;;;;7.41;93.42;100372.53;5018823;28;19928;-66
2023/12/22 05:55:53;;;;;;;;;;;;;;;7.43;93.47;100372.38;5014640;28;19921;-66
2023/12/22 05:58:18;;;;;;;;;;;;;;;7.40;94.61;100362.13;5016647;28;20746;-66
2023/12/22 06:00:43;;;;;;;;;;;;;;;7.45;94.76;100368.56;5015571;28;19926;-66
2023/12/22 06:03:09;;;;;;;;;;;;;;;7.43;95.65;100370.56;5012740;28;19933;-66
2023/12/22 06:05:34;;;;;;;;;;;;;;;7.47;95.65;100365.75;5018770;28;19927;-66
2023/12/22 06:07:59;;;;;;;;;;;;;;;7.51;96.37;100369.72;5008706;28;19917;-66
2023/12/22 06:10:24;;;;;;;;;;;;;;;7.66;96.63;100356.72;5016302;28;20023;-66
2023/12/22 06:12:50;;;;;;;;;;;;;;;7.69;96.46;100359.03;5016004;28;20134;-66
2023/12/22 06:15:15;;;;;;;;;;;;;;;7.65;96.30;100371.75;5019600;28;20393;-66
2023/12/22 06:17:40;;;;;;;;;;;;;;;7.61;97.06;100346.66;5014531;28;20433;-66
2023/12/22 06:20:06;;;;;;;;;;;;;;;7.50;96.88;100357.50;5011178;28;19921;-66
2023/12/22 06:22:32;;;;;;;;;;;;;;;7.37;97.60;100354.53;5016197;28;19917;-66
2023/12/22 06:24:57;;;;;;;;;;;;;;;7.33;98.26;100369.03;5021922;28;19972;-66
2023/12/22 06:27:23;;;;;;;;;;;;;;;7.24;98.90;100372.66;5015587;28;19952;-66
2023/12/22 06:29:48;;;;;;;;;;;;;;;7.19;99.34;100369.66;5017240;28;20482;-66
2023/12/22 06:32:13;;;;;;;;;;;;;;;7.18;99.72;100371.47;5022129;28;19917;-66
2023/12/22 06:34:38;;;;;;;;;;;;;;;7.17;99.99;100369.00;5014768;28;19918;-66
2023/12/22 06:37:04;;;;;;;;;;;;;;;7.17;100.00;100374.28;5016682;28;19921;-66
2023/12/22 06:39:29;;;;;;;;;;;;;;;7.16;100.00;100376.09;5016806;28;19925;-66
2023/12/22 06:41:54;;;;;;;;;;;;;;;7.22;100.00;100378.06;5013969;28;19921;-66
2023/12/22 06:44:19;;;;;;;;;;;;;;;7.27;100.00;100385.53;5023662;28;19928;-66
2023/12/22 06:46:44;;;;;;;;;;;;;;;7.29;100.00;100381.75;5012260;28;19929;-66
2023/12/22 06:49:10;;;;;;;;;;;;;;;7.34;100.00;100371.53;5005319;28;19914;-66
2023/12/22 06:51:35;;;;;;;;;;;;;;;7.41;100.00;100383.09;5007274;28;19929;-66
2023/12/22 06:54:01;;;;;;;;;;;;;;;7.54;100.00;100381.81;5018788;28;19917;-66
2023/12/22 06:56:27;;;;;;;;;;;;;;;7.55;100.00;100384.28;5015300;28;19928;-66
2023/12/22 06:58:53;;;;;;;;;;;;;;;7.63;100.00;100371.09;5014464;28;19955;-66
2023/12/22 07:01:22;;;;;;;;;;;;;;;7.72;100.00;100364.00;5004476;28;19940;-66
2023/12/22 07:03:48;;;;;;;;;;;;;;;7.71;100.00;100371.09;5007525;28;19929;-66
2023/12/22 07:06:14;;;;;;;;;;;;;;;7.78;100.00;100363.34;5019578;28;19925;-66
2023/12/22 07:08:39;;;;;;;;;;;;;;;7.78;100.00;100365.97;5010959;28;19975;-66
2023/12/22 07:11:04;;;;;;;;;;;;;;;7.74;100.00;100362.00;5013457;28;19928;-66
2023/12/22 07:13:29;;;;;;;;;;;;;;;7.77;100.00;100366.97;5009289;28;20600;-66
2023/12/22 07:15:55;;;;;;;;;;;;;;;7.81;100.00;100378.88;5013364;28;20401;-66
2023/12/22 07:18:20;;;;;;;;;;;;;;;7.83;100.00;100368.97;5007534;28;19929;-66
2023/12/22 07:20:45;;;;;;;;;;;;;;;7.84;100.00;100368.00;5013057;28;19995;-66
2023/12/22 07:23:11;;;;;;;;;;;;;;;7.87;100.00;100366.81;5008949;28;19925;-66
2023/12/22 07:25:38;;;;;;;;;;;;;;;7.88;100.00;100363.19;5009812;28;19928;-66
2023/12/22 07:28:04;;;;;;;;;;;;;;;7.90;100.00;100348.00;5014424;28;19932;-66
2023/12/22 07:30:29;;;;;;;;;;;;;;;7.96;100.00;100357.91;5020028;28;19921;-66
2023/12/22 07:32:54;;;;;;;;;;;;;;;7.94;99.93;100352.78;5020681;28;19917;-66
2023/12/22 07:35:19;;;;;;;;;;;;;;;7.96;100.00;100356.06;5013097;28;19967;-66
2023/12/22 07:37:45;;;;;;;;;;;;;;;8.02;99.76;100354.59;5016155;28;19968;-66
2023/12/22 07:40:10;;;;;;;;;;;;;;;8.05;100.00;100349.78;5028150;28;19964;-66
2023/12/22 07:42:36;;;;;;;;;;;;;;;8.05;99.56;100370.13;5008520;28;19975;-66
2023/12/22 07:45:03;;;;;;;;;;;;;;;8.14;99.29;100366.50;5006102;28;19960;-66
2023/12/22 07:47:28;;;;;;;;;;;;;;;8.06;99.44;100362.00;5005741;28;19925;-66
2023/12/22 07:49:53;;;;;;;;;;;;;;;8.12;99.23;100368.47;5013733;28;19930;-65
2023/12/22 07:52:18;;;;;;;;;;;;;;;8.16;99.19;100350.47;5010016;28;19922;-66
2023/12/22 07:54:43;;;;;;;;;;;;;;;8.11;99.36;100358.06;5012604;28;22544;-65
2023/12/22 07:57:09;;;;;;;;;;;;;;;8.14;99.66;100350.63;5020599;28;19925;-65
2023/12/22 07:59:35;;;;;;;;;;;;;;;8.23;99.26;100359.38;5015012;28;20449;-65
2023/12/22 08:02:00;;;;;;;;;;;;;;;8.19;99.36;100361.53;5010622;28;19997;-65
2023/12/22 08:04:25;;;;;;;;;;;;;;;8.23;98.94;100346.97;5006323;28;19932;-65
2023/12/22 08:06:52;;;;;;;;;;;;;;;8.30;99.11;100361.16;5013273;28;19921;-66
2023/12/22 08:09:17;;;;;;;;;;;;;;;8.37;98.78;100364.81;5010598;28;19932;-65
2023/12/22 08:11:42;;;;;;;;;;;;;;;8.24;98.74;100364.50;5002867;28;20661;-66
2023/12/22 08:14:07;;;;;;;;;;;;;;;8.35;98.90;100376.56;5009180;28;19928;-66
2023/12/22 08:16:33;;;;;;;;;;;;;;;8.34;98.82;100365.16;5018262;28;19931;-66
2023/12/22 08:18:58;;;;;;;;;;;;;;;8.34;98.92;100348.47;5010370;28;19921;-66
2023/12/22 08:21:23;;;;;;;;;;;;;;;8.31;98.96;100360.19;5020055;28;20188;-66
2023/12/22 08:23:49;;;;;;;;;;;;;;;8.34;99.48;100356.41;5018434;28;19921;-66
2023/12/22 08:26:17;;;;;;;;;;;;;;;8.41;99.30;100359.22;5018018;28;20555;-66
2023/12/22 08:28:42;;;;;;;;;;;;;;;8.33;99.45;100345.00;5016571;28;19921;-66
2023/12/22 08:31:07;;;;;;;;;;;;;;;8.41;99.73;100353.94;5014670;28;19921;-66
2023/12/22 08:33:32;;;;;;;;;;;;;;;8.36;99.99;100352.59;5015994;28;19947;-66
2023/12/22 08:35:58;;;;;;;;;;;;;;;8.47;100.00;100363.84;5018747;28;19949;-66
2023/12/22 08:38:23;;;;;;;;;;;;;;;8.47;100.00;100351.44;5016589;28;20552;-66
2023/12/22 08:40:48;;;;;;;;;;;;;;;8.51;99.84;100350.09;5009049;28;19948;-66
2023/12/22 08:43:14;;;;;;;;;;;;;;;8.57;100.00;100353.88;5011469;28;19956;-66
2023/12/22 08:45:39;;;;;;;;;;;;;;;8.56;100.00;100334.53;5014531;28;19923;-66
2023/12/22 08:48:07;;;;;;;;;;;;;;;8.56;100.00;100337.19;5009917;28;19929;-66
2023/12/22 08:50:32;;;;;;;;;;;;;;;8.54;100.00;100344.47;5007471;28;20512;-66
2023/12/22 08:52:58;;;;;;;;;;;;;;;8.58;100.00;100331.72;5013045;28;20017;-66
2023/12/22 08:55:23;;;;;;;;;;;;;;;8.61;100.00;100348.06;5010063;28;20345;-66
2023/12/22 08:57:48;;;;;;;;;;;;;;;8.61;100.00;100334.84;5015339;28;20024;-66
2023/12/22 09:00:13;;;;;;;;;;;;;;;8.56;100.00;100329.22;5007862;28;19931;-66
2023/12/22 09:02:39;;;;;;;;;;;;;;;8.55;100.00;100335.53;5008377;28;19917;-66
2023/12/22 09:05:05;;;;;;;;;;;;;;;8.57;100.00;100348.59;5011078;28;19984;-66
2023/12/22 09:07:30;;;;;;;;;;;;;;;8.55;100.00;100338.16;5011695;28;19965;-66
2023/12/22 09:09:55;;;;;;;;;;;;;;;8.55;100.00;100335.53;5004618;28;20015;-66
2023/12/22 09:12:21;;;;;;;;;;;;;;;8.58;100.00;100344.94;5016628;28;19917;-66
2023/12/22 09:14:46;;;;;;;;;;;;;;;8.61;100.00;100355.19;5010426;28;19925;-66
2023/12/22 09:17:11;;;;;;;;;;;;;;;8.65;100.00;100353.84;5009408;28;19917;-66
2023/12/22 09:19:38;;;;;;;;;;;;;;;8.73;100.00;100355.66;5007963;28;20307;-66
2023/12/22 09:22:04;;;;;;;;;;;;;;;8.73;100.00;100342.44;5016179;28;19943;-66
2023/12/22 09:24:29;;;;;;;;;;;;;;;8.63;100.00;100342.59;5020056;28;20383;-66
2023/12/22 09:26:54;;;;;;;;;;;;;;;8.55;100.00;100334.69;5015389;28;20398;-66
2023/12/22 09:29:21;;;;;;;;;;;;;;;8.58;100.00;100345.78;5007197;28;19917;-66
2023/12/22 09:31:46;;;;;;;;;;;;;;;8.59;100.00;100341.31;5012521;28;20648;-66
2023/12/22 09:34:11;;;;;;;;;;;;;;;8.61;100.00;100311.03;5018086;28;19964;-66
2023/12/22 09:36:37;;;;;;;;;;;;;;;8.62;100.00;100330.38;5016488;28;20294;-66
2023/12/22 09:39:02;;;;;;;;;;;;;;;8.55;100.00;100314.34;5020924;28;20556;-66
2023/12/22 09:41:28;;;;;;;;;;;;;;;8.63;100.00;100313.50;5018063;28;19971;-66
2023/12/22 09:43:55;;;;;;;;;;;;;;;8.61;100.00;100326.91;5016730;28;19925;-66
2023/12/22 09:46:21;;;;;;;;;;;;;;;8.62;100.00;100322.44;5009834;28;19972;-66
2023/12/22 09:48:46;;;;;;;;;;;;;;;8.60;100.00;100333.19;5013310;28;19948;-66
2023/12/22 09:51:14;;;;;;;;;;;;;;;8.67;100.00;100330.69;5014456;28;20007;-66
2023/12/22 09:53:40;;;;;;;;;;;;;;;8.74;100.00;100328.19;5007993;28;20436;-66
2023/12/22 09:56:06;;;;;;;;;;;;;;;8.76;100.00;100324.38;5009223;28;19917;-66
2023/12/22 09:58:32;;;;;;;;;;;;;;;8.81;100.00;100335.28;5009101;28;19933;-66
2023/12/22 10:00:57;;;;;;;;;;;;;;;8.92;100.00;100332.25;5011067;28;19933;-66
2023/12/22 10:03:24;;;;;;;;;;;;;;;8.97;100.00;100326.44;5012536;28;19918;-66
2023/12/22 10:05:49;;;;;;;;;;;;;;;9.08;100.00;100333.19;5017556;28;19921;-66
2023/12/22 10:08:15;;;;;;;;;;;;;;;9.15;100.00;100360.63;5023681;28;20447;-66
2023/12/22 10:10:41;;;;;;;;;;;;;;;9.16;100.00;100327.84;5011705;28;19961;-66
2023/12/22 10:13:09;;;;;;;;;;;;;;;9.22;100.00;100335.91;5019507;28;19960;-66
2023/12/22 10:15:36;;;;;;;;;;;;;;;9.20;100.00;100329.13;5015464;28;19956;-66
2023/12/22 10:18:01;;;;;;;;;;;;;;;9.27;100.00;100332.75;5017033;28;19921;-66
2023/12/22 10:20:26;;;;;;;;;;;;;;;9.38;100.00;100347.41;5017822;28;19940;-66
2023/12/22 10:22:51;;;;;;;;;;;;;;;9.42;100.00;100344.25;5012299;28;19925;-66
2023/12/22 10:25:21;;;;;;;;;;;;;;;9.38;100.00;100340.28;5014701;28;19945;-66
2023/12/22 10:27:46;;;;;;;;;;;;;;;9.37;100.00;100336.00;5011840;28;20396;-66
2023/12/22 10:30:14;;;;;;;;;;;;;;;9.44;100.00;100331.63;5011183;28;20158;-66
2023/12/22 10:32:41;;;;;;;;;;;;;;;9.41;100.00;100339.13;5012113;28;19921;-66
2023/12/22 10:35:07;;;;;;;;;;;;;;;9.39;100.00;100336.66;5013643;28;19941;-66
2023/12/22 10:37:32;;;;;;;;;;;;;;;9.45;100.00;100325.34;5012062;28;19917;-66
2023/12/22 10:39:57;;;;;;;;;;;;;;;9.46;100.00;100318.22;5017257;28;19928;-66
2023/12/22 10:42:23;;;;;;;;;;;;;;;9.42;100.00;100317.75;5017450;28;19921;-65
2023/12/22 10:44:49;;;;;;;;;;;;;;;9.48;100.00;100318.84;5016451;28;19925;-66
2023/12/22 10:47:14;;;;;;;;;;;;;;;9.47;100.00;100346.38;5016886;28;19921;-65
2023/12/22 10:49:39;;;;;;;;;;;;;;;9.57;100.00;100342.50;5018881;28;20406;-65
2023/12/22 10:52:05;;;;;;;;;;;;;;;9.57;100.00;100331.06;5019006;28;19923;-66
2023/12/22 10:54:30;;;;;;;;;;;;;;;9.54;100.00;100326.94;5017151;28;19921;-65
2023/12/22 10:57:02;;;;;;;;;;;;;;;9.57;100.00;100323.13;5019474;28;19928;-66
2023/12/22 10:59:31;;;;;;;;;;;;;;;9.61;100.00;100330.53;5020564;28;19933;-66
2023/12/22 11:02:00;;;;;;;;;;;;;;;9.59;100.00;100321.13;5018471;28;19921;-66
2023/12/22 11:04:29;;;;;;;;;;;;;;;9.64;100.00;100332.00;5018118;28;19925;-66
2023/12/22 11:06:56;;;;;;;;;;;;;;;9.66;100.00;100319.41;5016760;28;19929;-66
2023/12/22 11:09:24;;;;;;;;;;;;;;;9.70;100.00;100343.72;5017899;28;19983;-66
2023/12/22 11:11:50;;;;;;;;;;;;;;;9.69;100.00;100334.94;5019082;28;20662;-66
2023/12/22 11:14:17;;;;;;;;;;;;;;;9.72;100.00;100331.13;5021740;28;19921;-66
2023/12/22 11:16:47;;;;;;;;;;;;;;;9.77;100.00;100310.19;5011753;28;19928;-66
2023/12/22 11:19:13;;;;;;;;;;;;;;;9.79;100.00;100306.34;5015989;28;19936;-66
2023/12/22 11:21:39;;;;;;;;;;;;;;;9.79;100.00;100308.19;5017167;28;19931;-66
2023/12/22 11:24:05;;;;;;;;;;;;;;;9.78;100.00;100301.22;5021804;28;21459;-65
2023/12/22 11:26:31;;;;;;;;;;;;;;;9.75;100.00;100302.41;5018721;28;19931;-66
2023/12/22 11:28:56;;;;;;;;;;;;;;;9.79;100.00;100313.47;5010758;28;19921;-65
2023/12/22 11:31:23;;;;;;;;;;;;;;;9.73;100.00;100309.72;5017005;28;19991;-66
2023/12/22 11:33:49;;;;;;;;;;;;;;;9.78;100.00;100294.09;5010120;28;19941;-65
2023/12/22 11:36:15;;;;;;;;;;;;;;;9.83;100.00;100296.22;5013527;28;19958;-66
2023/12/22 11:38:41;;;;;;;;;;;;;;;9.85;100.00;100295.06;5016445;28;20410;-65
2023/12/22 11:41:09;;;;;;;;;;;;;;;9.82;100.00;100290.09;5017813;28;19932;-66
2023/12/22 11:43:34;;;;;;;;;;;;;;;9.82;100.00;100289.25;5014056;28;19925;-66
2023/12/22 11:46:03;;;;;;;;;;;;;;;9.78;100.00;100288.78;5024729;28;19931;-66
2023/12/22 11:48:28;;;;;;;;;;;;;;;9.78;100.00;100293.28;5009553;28;19917;-66
2023/12/22 11:50:54;;;;;;;;;;;;;;;9.84;100.00;100282.81;5010630;28;19925;-67
2023/12/22 11:53:19;;;;;;;;;;;;;;;9.76;100.00;100282.03;5021908;28;20075;-66
2023/12/22 11:55:57;;;;;;;;;;;;;;;9.78;100.00;100274.72;5007858;28;19921;-66
2023/12/22 11:58:41;;;;;;;;;;;;;;;9.78;100.00;100280.84;5021462;28;19932;-66
2023/12/22 12:01:07;;;;;;;;;;;;;;;9.77;100.00;100287.16;5008737;28;20268;-66
2023/12/22 12:03:35;;;;;;;;;;;;;;;9.78;100.00;100291.44;5010439;28;19917;-66
2023/12/22 12:06:13;;;;;;;;;;;;;;;9.80;100.00;100288.63;5016304;28;19929;-66
2023/12/22 12:08:38;;;;;;;;;;;;;;;9.78;100.00;100275.53;5012150;28;19921;-66
2023/12/22 12:11:03;;;;;;;;;;;;;;;9.80;100.00;100286.78;5007194;28;19987;-66
2023/12/22 12:13:30;;;;;;;;;;;;;;;9.82;100.00;100284.78;5011556;28;20071;-65
2023/12/22 12:15:56;;;;;;;;;;;;;;;9.84;100.00;100279.31;5012654;28;19922;-66
2023/12/22 12:18:26;;;;;;;;;;;;;;;9.73;100.00;100269.13;5015775;28;19936;-65
2023/12/22 12:20:52;;;;;;;;;;;;;;;9.72;100.00;100270.13;5016698;28;19987;-66
2023/12/22 12:23:17;;;;;;;;;;;;;;;9.75;100.00;100257.34;5015802;28;19928;-66
2023/12/22 12:25:43;;;;;;;;;;;;;;;9.75;100.00;100260.00;5006965;28;19913;-66
2023/12/22 12:28:11;;;;;;;;;;;;;;;9.75;100.00;100256.50;5013855;28;19917;-66
2023/12/22 12:30:37;;;;;;;;;;;;;;;9.77;100.00;100260.63;5007976;28;20378;-66
2023/12/22 12:33:09;;;;;;;;;;;;;;;9.82;100.00;100245.00;5012245;28;20427;-66